sensor_id;sensor_type;location;lat;lon;timestamp;pressure;altitude;pressure_sealevel;temperature;humidity
14343;BME280;7255;53.596;9.960;2022-12-18T00:02:02;102359.06;;;-5.43;nan
14343;BME280;7255;53.596;9.960;2022-12-18T00:04:29;102355.34;;;-5.39;nan
14343;BME280;7255;53.596;9.960;2022-12-18T00:06:55;102358.38;;;-5.47;nan
14343;BME280;7255;53.596;9.960;2022-12-18T00:09:23;102353.13;;;-5.47;nan
14343;BME280;7255;53.596;9.960;2022-12-18T00:11:50;102350.72;;;-5.51;nan
14343;BME280;7255;53.596;9.960;2022-12-18T00:14:16;102354.66;;;-5.43;nan
14343;BME280;7255;53.596;9.960;2022-12-18T00:16:44;102354.31;;;-5.52;nan
14343;BME280;7255;53.596;9.960;2022-12-18T00:19:11;102342.28;;;-5.56;nan
14343;BME280;7255;53.596;9.960;2022-12-18T00:21:37;102358.69;;;-5.53;nan
14343;BME280;7255;53.596;9.960;2022-12-18T00:24:04;102343.47;;;-5.62;nan
14343;BME280;7255;53.596;9.960;2022-12-18T00:26:33;102338.91;;;-5.58;nan
14343;BME280;7255;53.596;9.960;2022-12-18T00:29:02;102356.78;;;-5.67;nan
14343;BME280;7255;53.596;9.960;2022-12-18T00:31:28;102367.12;;;-5.48;nan
14343;BME280;7255;53.596;9.960;2022-12-18T00:33:56;102363.59;;;-5.47;nan
14343;BME280;7255;53.596;9.960;2022-12-18T00:36:24;102349.38;;;-5.58;nan
14343;BME280;7255;53.596;9.960;2022-12-18T00:38:53;102369.66;;;-5.62;nan
14343;BME280;7255;53.596;9.960;2022-12-18T00:41:19;102376.09;;;-5.52;nan
14343;BME280;7255;53.596;9.960;2022-12-18T00:44:02;102381.34;;;-5.52;nan
14343;BME280;7255;53.596;9.960;2022-12-18T00:46:29;102347.00;;;-5.63;nan
14343;BME280;7255;53.596;9.960;2022-12-18T00:48:55;102366.25;;;-5.64;nan
14343;BME280;7255;53.596;9.960;2022-12-18T00:51:22;102361.19;;;-5.67;nan
14343;BME280;7255;53.596;9.960;2022-12-18T00:53:48;102367.25;;;-5.67;nan
14343;BME280;7255;53.596;9.960;2022-12-18T00:56:14;102365.59;;;-5.68;nan
14343;BME280;7255;53.596;9.960;2022-12-18T00:58:41;102359.47;;;-5.68;nan
14343;BME280;7255;53.596;9.960;2022-12-18T01:01:08;102352.37;;;-5.66;nan
14343;BME280;7255;53.596;9.960;2022-12-18T01:03:35;102350.38;;;-5.61;nan
14343;BME280;7255;53.596;9.960;2022-12-18T01:06:06;102375.03;;;-5.65;nan
14343;BME280;7255;53.596;9.960;2022-12-18T01:08:32;102345.28;;;-5.64;nan
14343;BME280;7255;53.596;9.960;2022-12-18T01:10:58;102352.22;;;-5.63;nan
14343;BME280;7255;53.596;9.960;2022-12-18T01:13:25;102385.53;;;-5.65;nan
14343;BME280;7255;53.596;9.960;2022-12-18T01:15:51;102343.75;;;-5.68;nan
14343;BME280;7255;53.596;9.960;2022-12-18T01:18:19;102370.50;;;-5.62;nan
14343;BME280;7255;53.596;9.960;2022-12-18T01:20:45;102372.66;;;-5.70;nan
14343;BME280;7255;53.596;9.960;2022-12-18T01:23:11;102373.34;;;-5.66;nan
14343;BME280;7255;53.596;9.960;2022-12-18T01:25:38;102376.44;;;-5.58;nan
14343;BME280;7255;53.596;9.960;2022-12-18T01:28:04;102364.56;;;-5.65;nan
14343;BME280;7255;53.596;9.960;2022-12-18T01:30:31;102364.63;;;-5.49;nan
14343;BME280;7255;53.596;9.960;2022-12-18T01:32:57;102361.91;;;-5.48;nan
14343;BME280;7255;53.596;9.960;2022-12-18T01:35:28;102354.84;;;-5.46;nan
14343;BME280;7255;53.596;9.960;2022-12-18T01:37:55;102355.34;;;-5.39;nan
14343;BME280;7255;53.596;9.960;2022-12-18T01:40:21;102368.38;;;-5.37;nan
14343;BME280;7255;53.596;9.960;2022-12-18T01:42:50;102373.75;;;-5.41;nan
14343;BME280;7255;53.596;9.960;2022-12-18T01:45:26;102375.47;;;-5.39;nan
14343;BME280;7255;53.596;9.960;2022-12-18T01:47:54;102377.00;;;-5.35;nan
14343;BME280;7255;53.596;9.960;2022-12-18T01:50:24;102373.94;;;-5.44;nan
14343;BME280;7255;53.596;9.960;2022-12-18T01:52:54;102363.59;;;-5.47;nan
14343;BME280;7255;53.596;9.960;2022-12-18T01:55:23;102391.66;;;-5.49;nan
14343;BME280;7255;53.596;9.960;2022-12-18T01:57:52;102379.19;;;-5.44;nan
14343;BME280;7255;53.596;9.960;2022-12-18T02:00:21;102386.56;;;-5.52;nan
14343;BME280;7255;53.596;9.960;2022-12-18T02:02:48;102393.53;;;-5.51;nan
14343;BME280;7255;53.596;9.960;2022-12-18T02:05:16;102393.81;;;-5.57;nan
14343;BME280;7255;53.596;9.960;2022-12-18T02:07:53;102369.31;;;-5.56;nan
14343;BME280;7255;53.596;9.960;2022-12-18T02:10:27;102382.50;;;-5.57;nan
14343;BME280;7255;53.596;9.960;2022-12-18T02:13:02;102388.06;;;-5.64;nan
14343;BME280;7255;53.596;9.960;2022-12-18T02:15:36;102355.94;;;-5.67;nan
14343;BME280;7255;53.596;9.960;2022-12-18T02:18:07;102385.53;;;-5.65;nan
14343;BME280;7255;53.596;9.960;2022-12-18T02:20:39;102393.66;;;-5.54;nan
14343;BME280;7255;53.596;9.960;2022-12-18T02:23:19;102379.94;;;-5.59;nan
14343;BME280;7255;53.596;9.960;2022-12-18T02:26:05;102403.37;;;-5.73;nan
14343;BME280;7255;53.596;9.960;2022-12-18T02:28:35;102402.25;;;-5.68;nan
14343;BME280;7255;53.596;9.960;2022-12-18T02:31:05;102381.81;;;-5.61;nan
14343;BME280;7255;53.596;9.960;2022-12-18T02:33:34;102387.75;;;-5.57;nan
14343;BME280;7255;53.596;9.960;2022-12-18T02:36:02;102418.62;;;-5.64;nan
14343;BME280;7255;53.596;9.960;2022-12-18T02:38:31;102408.84;;;-5.61;nan
14343;BME280;7255;53.596;9.960;2022-12-18T02:41:00;102415.94;;;-5.63;nan
14343;BME280;7255;53.596;9.960;2022-12-18T02:43:26;102413.56;;;-5.67;nan
14343;BME280;7255;53.596;9.960;2022-12-18T02:45:56;102414.03;;;-5.76;nan
14343;BME280;7255;53.596;9.960;2022-12-18T02:48:25;102407.25;;;-5.81;nan
14343;BME280;7255;53.596;9.960;2022-12-18T02:50:57;102367.50;;;-5.89;nan
14343;BME280;7255;53.596;9.960;2022-12-18T02:53:30;102406.00;;;-5.91;nan
14343;BME280;7255;53.596;9.960;2022-12-18T02:56:05;102423.56;;;-5.93;nan
14343;BME280;7255;53.596;9.960;2022-12-18T02:58:38;102417.94;;;-6.03;nan
14343;BME280;7255;53.596;9.960;2022-12-18T03:01:15;102425.03;;;-6.05;nan
14343;BME280;7255;53.596;9.960;2022-12-18T03:03:49;102427.19;;;-6.13;nan
14343;BME280;7255;53.596;9.960;2022-12-18T03:06:21;102416.34;;;-6.23;nan
14343;BME280;7255;53.596;9.960;2022-12-18T03:08:51;102494.84;;;-6.23;nan
14343;BME280;7255;53.596;9.960;2022-12-18T03:11:20;102477.84;;;-6.33;nan
14343;BME280;7255;53.596;9.960;2022-12-18T03:14:07;102415.78;;;-6.29;nan
14343;BME280;7255;53.596;9.960;2022-12-18T03:16:33;102413.53;;;-6.37;nan
14343;BME280;7255;53.596;9.960;2022-12-18T03:19:04;102413.22;;;-6.31;nan
14343;BME280;7255;53.596;9.960;2022-12-18T03:21:38;102479.69;;;-6.35;nan
14343;BME280;7255;53.596;9.960;2022-12-18T03:24:08;102411.25;;;-6.45;nan
14343;BME280;7255;53.596;9.960;2022-12-18T03:26:38;102473.06;;;-6.42;nan
14343;BME280;7255;53.596;9.960;2022-12-18T03:29:12;102419.19;;;-6.46;nan
14343;BME280;7255;53.596;9.960;2022-12-18T03:31:42;102476.03;;;-6.50;nan
14343;BME280;7255;53.596;9.960;2022-12-18T03:34:14;102456.94;;;-6.52;nan
14343;BME280;7255;53.596;9.960;2022-12-18T03:36:42;102420.88;;;-6.45;nan
14343;BME280;7255;53.596;9.960;2022-12-18T03:39:08;102422.84;;;-6.50;nan
14343;BME280;7255;53.596;9.960;2022-12-18T03:41:43;102425.12;;;-6.43;nan
14343;BME280;7255;53.596;9.960;2022-12-18T03:44:13;102421.03;;;-6.48;nan
14343;BME280;7255;53.596;9.960;2022-12-18T03:46:46;102405.03;;;-6.42;nan
14343;BME280;7255;53.596;9.960;2022-12-18T03:49:23;102418.91;;;-6.40;nan
14343;BME280;7255;53.596;9.960;2022-12-18T03:51:54;102420.44;;;-6.36;nan
14343;BME280;7255;53.596;9.960;2022-12-18T03:54:23;102422.41;;;-6.41;nan
14343;BME280;7255;53.596;9.960;2022-12-18T03:56:57;102413.81;;;-6.43;nan
14343;BME280;7255;53.596;9.960;2022-12-18T03:59:26;102413.81;;;-6.43;nan
14343;BME280;7255;53.596;9.960;2022-12-18T04:01:55;102471.22;;;-6.40;nan
14343;BME280;7255;53.596;9.960;2022-12-18T04:04:24;102412.13;;;-6.44;nan
14343;BME280;7255;53.596;9.960;2022-12-18T04:06:51;102409.97;;;-6.36;nan
14343;BME280;7255;53.596;9.960;2022-12-18T04:09:19;102487.06;;;-6.24;nan
14343;BME280;7255;53.596;9.960;2022-12-18T04:11:46;102381.69;;;-6.28;nan
14343;BME280;7255;53.596;9.960;2022-12-18T04:14:14;102414.94;;;-6.30;nan
14343;BME280;7255;53.596;9.960;2022-12-18T04:16:40;102420.88;;;-6.26;nan
14343;BME280;7255;53.596;9.960;2022-12-18T04:19:06;102423.56;;;-6.28;nan
14343;BME280;7255;53.596;9.960;2022-12-18T04:21:33;102420.16;;;-6.30;nan
14343;BME280;7255;53.596;9.960;2022-12-18T04:23:59;102489.75;;;-6.26;nan
14343;BME280;7255;53.596;9.960;2022-12-18T04:26:25;102413.63;;;-6.21;nan
14343;BME280;7255;53.596;9.960;2022-12-18T04:28:52;102425.34;;;-6.11;nan
14343;BME280;7255;53.596;9.960;2022-12-18T04:31:19;102416.41;;;-6.07;nan
14343;BME280;7255;53.596;9.960;2022-12-18T04:33:46;102427.72;;;-6.06;nan
14343;BME280;7255;53.596;9.960;2022-12-18T04:36:12;102514.03;;;-6.05;nan
14343;BME280;7255;53.596;9.960;2022-12-18T04:38:38;102424.19;;;-6.05;nan
14343;BME280;7255;53.596;9.960;2022-12-18T04:41:05;102497.94;;;-6.14;nan
14343;BME280;7255;53.596;9.960;2022-12-18T04:43:31;102409.25;;;-6.21;nan
14343;BME280;7255;53.596;9.960;2022-12-18T04:46:02;102417.69;;;-6.15;nan
14343;BME280;7255;53.596;9.960;2022-12-18T04:48:29;102407.69;;;-6.25;nan
14343;BME280;7255;53.596;9.960;2022-12-18T04:50:56;102409.25;;;-6.21;nan
14343;BME280;7255;53.596;9.960;2022-12-18T04:53:22;102408.12;;;-6.34;nan
14343;BME280;7255;53.596;9.960;2022-12-18T04:55:48;102488.31;;;-6.33;nan
14343;BME280;7255;53.596;9.960;2022-12-18T04:58:15;102418.75;;;-6.37;nan
14343;BME280;7255;53.596;9.960;2022-12-18T05:00:41;102416.75;;;-6.32;nan
14343;BME280;7255;53.596;9.960;2022-12-18T05:03:07;102420.69;;;-6.23;nan
14343;BME280;7255;53.596;9.960;2022-12-18T05:05:35;102493.69;;;-6.17;nan
14343;BME280;7255;53.596;9.960;2022-12-18T05:08:02;102430.00;;;-6.17;nan
14343;BME280;7255;53.596;9.960;2022-12-18T05:10:28;102431.34;;;-6.26;nan
14343;BME280;7255;53.596;9.960;2022-12-18T05:12:54;102438.94;;;-6.22;nan
14343;BME280;7255;53.596;9.960;2022-12-18T05:15:24;102501.88;;;-6.25;nan
14343;BME280;7255;53.596;9.960;2022-12-18T05:17:52;102444.91;;;-6.37;nan
14343;BME280;7255;53.596;9.960;2022-12-18T05:20:18;102496.38;;;-6.37;nan
14343;BME280;7255;53.596;9.960;2022-12-18T05:22:46;102453.69;;;-6.38;nan
14343;BME280;7255;53.596;9.960;2022-12-18T05:25:12;102439.41;;;-6.50;nan
14343;BME280;7255;53.596;9.960;2022-12-18T05:27:39;102445.34;;;-6.46;nan
14343;BME280;7255;53.596;9.960;2022-12-18T05:30:06;102446.91;;;-6.42;nan
14343;BME280;7255;53.596;9.960;2022-12-18T05:32:33;102445.50;;;-6.49;nan
14343;BME280;7255;53.596;9.960;2022-12-18T05:34:59;102485.38;;;-6.44;nan
14343;BME280;7255;53.596;9.960;2022-12-18T05:37:25;102449.72;;;-6.47;nan
14343;BME280;7255;53.596;9.960;2022-12-18T05:39:53;102444.47;;;-6.47;nan
14343;BME280;7255;53.596;9.960;2022-12-18T05:42:19;102454.09;;;-6.47;nan
14343;BME280;7255;53.596;9.960;2022-12-18T05:44:46;102465.28;;;-6.44;nan
14343;BME280;7255;53.596;9.960;2022-12-18T05:47:12;102491.03;;;-6.53;nan
14343;BME280;7255;53.596;9.960;2022-12-18T05:49:38;102459.22;;;-6.44;nan
14343;BME280;7255;53.596;9.960;2022-12-18T05:52:05;102455.66;;;-6.43;nan
14343;BME280;7255;53.596;9.960;2022-12-18T05:54:31;102461.19;;;-6.49;nan
14343;BME280;7255;53.596;9.960;2022-12-18T05:56:59;102453.09;;;-6.45;nan
14343;BME280;7255;53.596;9.960;2022-12-18T05:59:25;102469.50;;;-6.41;nan
14343;BME280;7255;53.596;9.960;2022-12-18T06:01:52;102455.66;;;-6.43;nan
14343;BME280;7255;53.596;9.960;2022-12-18T06:04:18;102460.87;;;-6.43;nan
14343;BME280;7255;53.596;9.960;2022-12-18T06:06:44;102448.56;;;-6.41;nan
14343;BME280;7255;53.596;9.960;2022-12-18T06:09:11;102498.38;;;-6.43;nan
14343;BME280;7255;53.596;9.960;2022-12-18T06:11:38;102457.94;;;-6.35;nan
14343;BME280;7255;53.596;9.960;2022-12-18T06:14:06;102495.81;;;-6.44;nan
14343;BME280;7255;53.596;9.960;2022-12-18T06:16:32;102466.28;;;-6.46;nan
14343;BME280;7255;53.596;9.960;2022-12-18T06:19:00;102455.94;;;-6.49;nan
14343;BME280;7255;53.596;9.960;2022-12-18T06:21:27;102459.47;;;-6.50;nan
14343;BME280;7255;53.596;9.960;2022-12-18T06:23:54;102492.44;;;-6.46;nan
14343;BME280;7255;53.596;9.960;2022-12-18T06:26:20;102460.75;;;-6.40;nan
14343;BME280;7255;53.596;9.960;2022-12-18T06:28:47;102506.00;;;-6.38;nan
14343;BME280;7255;53.596;9.960;2022-12-18T06:31:14;102504.44;;;-6.42;nan
14343;BME280;7255;53.596;9.960;2022-12-18T06:33:41;102499.22;;;-6.42;nan
14343;BME280;7255;53.596;9.960;2022-12-18T06:36:09;102471.22;;;-6.40;nan
14343;BME280;7255;53.596;9.960;2022-12-18T06:38:40;102474.75;;;-6.41;nan
14343;BME280;7255;53.596;9.960;2022-12-18T06:41:07;102476.56;;;-6.43;nan
14343;BME280;7255;53.596;9.960;2022-12-18T06:43:34;102441.66;;;-6.42;nan
14343;BME280;7255;53.596;9.960;2022-12-18T06:46:00;102475.31;;;-6.53;nan
14343;BME280;7255;53.596;9.960;2022-12-18T06:48:28;102473.19;;;-6.45;nan
14343;BME280;7255;53.596;9.960;2022-12-18T06:50:55;102472.94;;;-6.39;nan
14343;BME280;7255;53.596;9.960;2022-12-18T06:53:21;102473.19;;;-6.45;nan
14343;BME280;7255;53.596;9.960;2022-12-18T06:55:48;102478.44;;;-6.45;nan
14343;BME280;7255;53.596;9.960;2022-12-18T06:58:14;102471.34;;;-6.43;nan
14343;BME280;7255;53.596;9.960;2022-12-18T07:00:41;102472.22;;;-6.43;nan
14343;BME280;7255;53.596;9.960;2022-12-18T07:03:07;102479.69;;;-6.35;nan
14343;BME280;7255;53.596;9.960;2022-12-18T07:05:39;102507.72;;;-6.37;nan
14343;BME280;7255;53.596;9.960;2022-12-18T07:08:06;102478.28;;;-6.42;nan
14343;BME280;7255;53.596;9.960;2022-12-18T07:10:32;102466.12;;;-6.43;nan
14343;BME280;7255;53.596;9.960;2022-12-18T07:12:58;102485.62;;;-6.50;nan
14343;BME280;7255;53.596;9.960;2022-12-18T07:15:25;102504.75;;;-6.48;nan
14343;BME280;7255;53.596;9.960;2022-12-18T07:17:51;102489.19;;;-6.51;nan
14343;BME280;7255;53.596;9.960;2022-12-18T07:20:17;102492.44;;;-6.46;nan
14343;BME280;7255;53.596;9.960;2022-12-18T07:22:45;102497.38;;;-6.40;nan
14343;BME280;7255;53.596;9.960;2022-12-18T07:25:11;102483.22;;;-6.36;nan
14343;BME280;7255;53.596;9.960;2022-12-18T07:27:38;102502.31;;;-6.34;nan
14343;BME280;7255;53.596;9.960;2022-12-18T07:30:05;102528.47;;;-6.34;nan
14343;BME280;7255;53.596;9.960;2022-12-18T07:32:32;102507.72;;;-6.37;nan
14343;BME280;7255;53.596;9.960;2022-12-18T07:34:58;102510.09;;;-6.32;nan
14343;BME280;7255;53.596;9.960;2022-12-18T07:37:24;102505.72;;;-6.32;nan
14343;BME280;7255;53.596;9.960;2022-12-18T07:42:18;102511.09;;;-6.35;nan
14343;BME280;7255;53.596;9.960;2022-12-18T07:44:56;102525.09;;;-6.36;nan
14343;BME280;7255;53.596;9.960;2022-12-18T07:47:23;102509.38;;;-6.36;nan
14343;BME280;7255;53.596;9.960;2022-12-18T07:49:49;102517.03;;;-6.31;nan
14343;BME280;7255;53.596;9.960;2022-12-18T07:52:16;102532.75;;;-6.31;nan
14343;BME280;7255;53.596;9.960;2022-12-18T07:54:42;102520.72;;;-6.35;nan
14343;BME280;7255;53.596;9.960;2022-12-18T07:57:10;102528.47;;;-6.34;nan
14343;BME280;7255;53.596;9.960;2022-12-18T07:59:36;102528.06;;;-6.25;nan
14343;BME280;7255;53.596;9.960;2022-12-18T08:02:03;102553.78;;;-6.15;nan
14343;BME280;7255;53.596;9.960;2022-12-18T08:04:29;102523.78;;;-6.08;nan
14343;BME280;7255;53.596;9.960;2022-12-18T08:06:55;102525.50;;;-6.07;nan
14343;BME280;7255;53.596;9.960;2022-12-18T08:09:22;102528.75;;;-6.02;nan
14343;BME280;7255;53.596;9.960;2022-12-18T08:11:48;102532.84;;;-5.96;nan
14343;BME280;7255;53.596;9.960;2022-12-18T08:14:16;102539.59;;;-5.92;nan
14343;BME280;7255;53.596;9.960;2022-12-18T08:16:42;102524.59;;;-5.89;nan
14343;BME280;7255;53.596;9.960;2022-12-18T08:19:08;102526.31;;;-5.88;nan
14343;BME280;7255;53.596;9.960;2022-12-18T08:21:35;102521.78;;;-5.84;nan
14343;BME280;7255;53.596;9.960;2022-12-18T08:24:01;102499.69;;;-5.78;nan
14343;BME280;7255;53.596;9.960;2022-12-18T08:26:29;102522.16;;;-5.74;nan
14343;BME280;7255;53.596;9.960;2022-12-18T08:28:57;102522.03;;;-5.71;nan
14343;BME280;7255;53.596;9.960;2022-12-18T08:31:26;102522.03;;;-5.71;nan
14343;BME280;7255;53.596;9.960;2022-12-18T08:33:53;102525.56;;;-5.72;nan
14343;BME280;7255;53.596;9.960;2022-12-18T08:36:20;102527.97;;;-5.68;nan
14343;BME280;7255;53.596;9.960;2022-12-18T08:38:46;102530.03;;;-5.57;nan
14343;BME280;7255;53.596;9.960;2022-12-18T08:41:15;102603.25;;;-5.54;nan
14343;BME280;7255;53.596;9.960;2022-12-18T08:43:41;102526.06;;;-5.47;nan
14343;BME280;7255;53.596;9.960;2022-12-18T08:46:32;102527.91;;;-5.49;nan
14343;BME280;7255;53.596;9.960;2022-12-18T08:49:00;102523.50;;;-5.48;nan
14343;BME280;7255;53.596;9.960;2022-12-18T08:51:26;102545.84;;;-5.41;nan
14343;BME280;7255;53.596;9.960;2022-12-18T08:53:52;102544.69;;;-5.35;nan
14343;BME280;7255;53.596;9.960;2022-12-18T08:56:19;102628.56;;;-5.35;nan
14343;BME280;7255;53.596;9.960;2022-12-18T08:58:46;102537.47;;;-5.30;nan
14343;BME280;7255;53.596;9.960;2022-12-18T09:01:13;102533.75;;;-5.26;nan
14343;BME280;7255;53.596;9.960;2022-12-18T09:03:40;102528.03;;;-5.17;nan
14343;BME280;7255;53.596;9.960;2022-12-18T09:06:07;102524.38;;;-5.13;nan
14343;BME280;7255;53.596;9.960;2022-12-18T09:08:34;102534.69;;;-5.10;nan
14343;BME280;7255;53.596;9.960;2022-12-18T09:11:01;102527.44;;;-5.05;nan
14343;BME280;7255;53.596;9.960;2022-12-18T09:13:28;102539.31;;;-4.97;nan
14343;BME280;7255;53.596;9.960;2022-12-18T09:15:54;102542.84;;;-4.98;nan
14343;BME280;7255;53.596;9.960;2022-12-18T09:18:22;102542.69;;;-4.95;nan
14343;BME280;7255;53.596;9.960;2022-12-18T09:20:50;102538.13;;;-4.92;nan
14343;BME280;7255;53.596;9.960;2022-12-18T09:23:18;102498.38;;;-4.84;nan
14343;BME280;7255;53.596;9.960;2022-12-18T09:25:44;102539.38;;;-4.81;nan
14343;BME280;7255;53.596;9.960;2022-12-18T09:28:12;102539.03;;;-4.75;nan
14343;BME280;7255;53.596;9.960;2022-12-18T09:30:40;102542.78;;;-4.64;nan
14343;BME280;7255;53.596;9.960;2022-12-18T09:33:06;102555.66;;;-4.59;nan
14343;BME280;7255;53.596;9.960;2022-12-18T09:35:38;102554.50;;;-4.53;nan
14343;BME280;7255;53.596;9.960;2022-12-18T09:38:08;102548.06;;;-4.48;nan
14343;BME280;7255;53.596;9.960;2022-12-18T09:40:42;102555.72;;;-4.43;nan
14343;BME280;7255;53.596;9.960;2022-12-18T09:43:13;102555.22;;;-4.34;nan
14343;BME280;7255;53.596;9.960;2022-12-18T09:45:44;102556.38;;;-4.23;nan
14343;BME280;7255;53.596;9.960;2022-12-18T09:48:15;102571.47;;;-4.11;nan
14343;BME280;7255;53.596;9.960;2022-12-18T09:50:44;102572.16;;;-4.08;nan
14343;BME280;7255;53.596;9.960;2022-12-18T09:53:15;102575.37;;;-4.02;nan
14343;BME280;7255;53.596;9.960;2022-12-18T09:55:46;102570.97;;;-4.02;nan
14343;BME280;7255;53.596;9.960;2022-12-18T09:58:18;102574.38;;;-4.00;nan
14343;BME280;7255;53.596;9.960;2022-12-18T10:00:46;102568.94;;;-3.97;nan
14343;BME280;7255;53.596;9.960;2022-12-18T10:03:14;102572.19;;;-3.92;nan
14343;BME280;7255;53.596;9.960;2022-12-18T10:05:49;102578.44;;;-3.78;nan
14343;BME280;7255;53.596;9.960;2022-12-18T10:08:22;102594.88;;;-3.59;nan
14343;BME280;7255;53.596;9.960;2022-12-18T10:10:52;102590.47;;;-3.58;nan
14343;BME280;7255;53.596;9.960;2022-12-18T10:13:23;102603.84;;;-3.47;nan
14343;BME280;7255;53.596;9.960;2022-12-18T10:16:00;102593.84;;;-3.40;nan
14343;BME280;7255;53.596;9.960;2022-12-18T10:18:40;102593.47;;;-3.34;nan
14343;BME280;7255;53.596;9.960;2022-12-18T10:21:14;102596.69;;;-3.29;nan
14343;BME280;7255;53.596;9.960;2022-12-18T10:23:49;102591.25;;;-3.26;nan
14343;BME280;7255;53.596;9.960;2022-12-18T10:26:19;102677.06;;;-3.09;nan
14343;BME280;7255;53.596;9.960;2022-12-18T10:28:46;102610.50;;;-2.95;nan
14343;BME280;7255;53.596;9.960;2022-12-18T10:31:15;102613.03;;;-2.94;nan
14343;BME280;7255;53.596;9.960;2022-12-18T10:33:42;102609.81;;;-2.99;nan
14343;BME280;7255;53.596;9.960;2022-12-18T10:36:08;102613.88;;;-2.93;nan
14343;BME280;7255;53.596;9.960;2022-12-18T10:38:35;102622.34;;;-2.88;nan
14343;BME280;7255;53.596;9.960;2022-12-18T10:41:04;102621.34;;;-2.85;nan
14343;BME280;7255;53.596;9.960;2022-12-18T10:43:32;102618.78;;;-2.87;nan
14343;BME280;7255;53.596;9.960;2022-12-18T10:46:02;102619.13;;;-2.93;nan
14343;BME280;7255;53.596;9.960;2022-12-18T10:48:30;102614.38;;;-2.86;nan
14343;BME280;7255;53.596;9.960;2022-12-18T10:50:56;102615.31;;;-2.73;nan
14343;BME280;7255;53.596;9.960;2022-12-18T10:53:24;102632.75;;;-2.56;nan
14343;BME280;7255;53.596;9.960;2022-12-18T10:55:53;102623.91;;;-2.55;nan
14343;BME280;7255;53.596;9.960;2022-12-18T10:58:24;102635.03;;;-2.36;nan
14343;BME280;7255;53.596;9.960;2022-12-18T11:01:06;102590.06;;;-2.18;nan
14343;BME280;7255;53.596;9.960;2022-12-18T11:03:34;102622.41;;;-2.02;nan
14343;BME280;7255;53.596;9.960;2022-12-18T11:06:04;102621.75;;;-2.05;nan
14343;BME280;7255;53.596;9.960;2022-12-18T11:08:31;102617.53;;;-2.08;nan
14343;BME280;7255;53.596;9.960;2022-12-18T11:10:57;102634.84;;;-2.04;nan
14343;BME280;7255;53.596;9.960;2022-12-18T11:13:26;102622.87;;;-1.95;nan
14343;BME280;7255;53.596;9.960;2022-12-18T11:15:53;102633.34;;;-2.08;nan
14343;BME280;7255;53.596;9.960;2022-12-18T11:18:25;102623.28;;;-2.01;nan
14343;BME280;7255;53.596;9.960;2022-12-18T11:20:53;102628.16;;;-1.95;nan
14343;BME280;7255;53.596;9.960;2022-12-18T11:23:21;102628.97;;;-1.95;nan
14343;BME280;7255;53.596;9.960;2022-12-18T11:25:57;102616.78;;;-1.96;nan
14343;BME280;7255;53.596;9.960;2022-12-18T11:28:35;102634.47;;;-1.98;nan
14343;BME280;7255;53.596;9.960;2022-12-18T11:31:22;102596.91;;;-2.01;nan
14343;BME280;7255;53.596;9.960;2022-12-18T11:34:01;102607.91;;;-1.95;nan
14343;BME280;7255;53.596;9.960;2022-12-18T11:36:33;102613.00;;;-1.91;nan
14343;BME280;7255;53.596;9.960;2022-12-18T11:39:04;102625.03;;;-1.87;nan
14343;BME280;7255;53.596;9.960;2022-12-18T11:41:34;102624.59;;;-1.94;nan
14343;BME280;7255;53.596;9.960;2022-12-18T11:44:24;102605.19;;;-1.93;nan
14343;BME280;7255;53.596;9.960;2022-12-18T11:46:56;102611.28;;;-1.92;nan
14343;BME280;7255;53.596;9.960;2022-12-18T11:49:27;102624.44;;;-1.78;nan
14343;BME280;7255;53.596;9.960;2022-12-18T11:52:00;102623.66;;;-1.66;nan
14343;BME280;7255;53.596;9.960;2022-12-18T11:54:28;102623.66;;;-1.66;nan
14343;BME280;7255;53.596;9.960;2022-12-18T11:56:58;102630.66;;;-1.65;nan
14343;BME280;7255;53.596;9.960;2022-12-18T11:59:37;102624.56;;;-1.52;nan
14343;BME280;7255;53.596;9.960;2022-12-18T12:02:22;102605.56;;;-1.58;nan
14343;BME280;7255;53.596;9.960;2022-12-18T12:05:04;102601.09;;;-1.70;nan
14343;BME280;7255;53.596;9.960;2022-12-18T12:07:46;102594.94;;;-1.70;nan
14343;BME280;7255;53.596;9.960;2022-12-18T12:10:25;102585.87;;;-1.79;nan
14343;BME280;7255;53.596;9.960;2022-12-18T12:13:07;102576.56;;;-1.85;nan
14343;BME280;7255;53.596;9.960;2022-12-18T12:15:45;102564.97;;;-1.82;nan
14343;BME280;7255;53.596;9.960;2022-12-18T12:18:25;102583.06;;;-1.90;nan
14343;BME280;7255;53.596;9.960;2022-12-18T12:20:59;102578.41;;;-1.87;nan
14343;BME280;7255;53.596;9.960;2022-12-18T12:23:37;102581.44;;;-1.79;nan
14343;BME280;7255;53.596;9.960;2022-12-18T12:26:08;102574.91;;;-1.73;nan
14343;BME280;7255;53.596;9.960;2022-12-18T12:28:48;102575.37;;;-1.66;nan
14343;BME280;7255;53.596;9.960;2022-12-18T12:31:24;102567.56;;;-1.68;nan
14343;BME280;7255;53.596;9.960;2022-12-18T12:33:57;102577.31;;;-1.56;nan
14343;BME280;7255;53.596;9.960;2022-12-18T12:36:33;102562.97;;;-1.51;nan
14343;BME280;7255;53.596;9.960;2022-12-18T12:39:06;102552.63;;;-1.55;nan
14343;BME280;7255;53.596;9.960;2022-12-18T12:41:35;102557.06;;;-1.55;nan
14343;BME280;7255;53.596;9.960;2022-12-18T12:44:24;102542.72;;;-1.51;nan
14343;BME280;7255;53.596;9.960;2022-12-18T12:46:56;102529.66;;;-1.40;nan
14343;BME280;7255;53.596;9.960;2022-12-18T12:49:27;102521.03;;;-1.29;nan
14343;BME280;7255;53.596;9.960;2022-12-18T12:52:00;102517.91;;;-1.08;nan
14343;BME280;7255;53.596;9.960;2022-12-18T12:54:31;102519.59;;;-1.07;nan
14343;BME280;7255;53.596;9.960;2022-12-18T12:57:01;102516.22;;;-1.09;nan
14343;BME280;7255;53.596;9.960;2022-12-18T12:59:37;102460.28;;;-1.14;nan
14343;BME280;7255;53.596;9.960;2022-12-18T13:02:15;102536.72;;;-1.00;nan
14343;BME280;7255;53.596;9.960;2022-12-18T13:04:48;102547.06;;;-0.84;nan
14343;BME280;7255;53.596;9.960;2022-12-18T13:07:20;102543.25;;;-0.93;nan
14343;BME280;7255;53.596;9.960;2022-12-18T13:12:55;102525.94;;;-0.97;nan
14343;BME280;7255;53.596;9.960;2022-12-18T13:15:22;102499.12;;;-0.91;nan
14343;BME280;7255;53.596;9.960;2022-12-18T13:18:04;102530.16;;;-0.82;nan
14343;BME280;7255;53.596;9.960;2022-12-18T13:20:33;102548.53;;;-0.67;nan
14343;BME280;7255;53.596;9.960;2022-12-18T13:23:01;102550.44;;;-0.69;nan
14343;BME280;7255;53.596;9.960;2022-12-18T13:25:35;102536.91;;;-0.78;nan
14343;BME280;7255;53.596;9.960;2022-12-18T13:28:10;102516.00;;;-0.81;nan
14343;BME280;7255;53.596;9.960;2022-12-18T13:30:55;102525.94;;;-0.97;nan
14343;BME280;7255;53.596;9.960;2022-12-18T13:33:50;102515.38;;;-1.23;nan
14343;BME280;7255;53.596;9.960;2022-12-18T13:36:27;102509.03;;;-1.20;nan
14343;BME280;7255;53.596;9.960;2022-12-18T13:42:34;102495.03;;;-1.61;nan
14343;BME280;7255;53.596;9.960;2022-12-18T13:45:39;102478.72;;;-1.80;nan